Terminal Aerodrome Forecast
Issued by NWS Raleigh/Durham, NC

Current Version | Previous Version | Text Only | Print | Product List | Glossary On
Versions: 1 2 3 4 5 6 7 8 9 10 11 12 13 14 15 16 17 18 19 20 21 22 23 24 25 26 27 28 29 30 31 32 33 34 35 36 37 38 39 40 41 42 43 44 45 46
000
FTUS42 KRAH 270814 AAA
TAFRDU
TAF AMD
KRDU 270814Z 2708/2806 31003KT P6SM SKC
      TEMPO 2709/2711 3SM BR SCT002
     FM271500 33011KT P6SM SKC
      TEMPO 2718/2722 34013G18KT SCT070=

USA.gov is the U.S. government's official web portal to all federal, state and local government web resources and services.